createdAt,value
2018-12-31T00:01:06.253Z,16.13
2018-12-31T00:03:35.554Z,14.47
2018-12-31T00:06:04.820Z,15.57
2018-12-31T00:08:34.080Z,15.83
2018-12-31T00:11:04.877Z,15.47
2018-12-31T00:13:34.107Z,15.77
2018-12-31T00:16:03.354Z,15.53
2018-12-31T00:18:32.617Z,16.23
2018-12-31T00:21:01.868Z,15.17
2018-12-31T00:23:31.146Z,15.10
2018-12-31T00:26:00.474Z,16.40
2018-12-31T00:28:29.747Z,15.53
2018-12-31T00:30:59.115Z,15.37
2018-12-31T00:33:28.403Z,16.23
2018-12-31T00:35:57.662Z,16.37
2018-12-31T00:38:26.957Z,15.20
2018-12-31T00:40:56.237Z,15.83
2018-12-31T00:43:25.481Z,16.20
2018-12-31T00:45:54.812Z,16.00
2018-12-31T00:48:24.099Z,16.43
2018-12-31T00:50:53.381Z,17.33
2018-12-31T00:53:22.638Z,14.93
2018-12-31T00:55:51.900Z,15.83
2018-12-31T00:58:21.183Z,15.70
2018-12-31T01:00:50.431Z,15.97
2018-12-31T01:03:19.805Z,15.80
2018-12-31T01:05:49.064Z,16.53
2018-12-31T01:08:18.388Z,16.27
2018-12-31T01:10:47.634Z,16.87
2018-12-31T01:13:16.919Z,17.10
2018-12-31T01:15:47.995Z,17.90
2018-12-31T01:18:17.302Z,17.77
2018-12-31T01:20:46.598Z,15.93
2018-12-31T01:23:17.665Z,18.93
2018-12-31T01:25:48.143Z,18.50
2018-12-31T01:28:17.390Z,18.87
2018-12-31T01:30:46.817Z,18.50
2018-12-31T01:33:16.110Z,18.97
2018-12-31T01:35:45.444Z,19.20
2018-12-31T01:38:14.727Z,19.70
2018-12-31T01:40:43.981Z,19.33
2018-12-31T01:43:13.363Z,19.17
2018-12-31T01:45:42.613Z,20.33
2018-12-31T01:48:11.904Z,20.53
2018-12-31T01:50:41.163Z,21.83
2018-12-31T01:53:10.455Z,21.33
2018-12-31T01:55:39.783Z,19.97
2018-12-31T01:58:09.027Z,20.57
2018-12-31T02:00:38.279Z,20.97
2018-12-31T02:03:07.568Z,21.87
2018-12-31T02:05:36.822Z,22.20
2018-12-31T02:08:06.110Z,20.13
2018-12-31T02:10:35.341Z,21.43
2018-12-31T02:13:05.250Z,20.90
2018-12-31T02:15:34.499Z,22.77
2018-12-31T02:18:03.776Z,20.83
2018-12-31T02:20:33.066Z,20.83
2018-12-31T02:23:02.344Z,20.80
2018-12-31T02:25:31.603Z,22.10
2018-12-31T02:28:00.856Z,21.83
2018-12-31T02:30:31.175Z,21.13
2018-12-31T02:33:00.447Z,20.80
2018-12-31T02:35:29.912Z,20.90
2018-12-31T02:37:59.159Z,20.20
2018-12-31T02:40:28.419Z,20.47
2018-12-31T02:42:57.695Z,19.10
2018-12-31T02:45:26.936Z,20.80
2018-12-31T02:47:56.220Z,18.57
2018-12-31T02:50:25.493Z,20.27
2018-12-31T02:52:54.799Z,20.17
2018-12-31T02:55:24.148Z,19.67
2018-12-31T02:57:53.408Z,18.73
2018-12-31T03:00:22.867Z,20.13
2018-12-31T03:02:52.113Z,20.53
2018-12-31T03:05:21.378Z,19.50
2018-12-31T03:07:51.133Z,19.83
2018-12-31T03:10:20.433Z,20.37
2018-12-31T03:12:49.677Z,19.70
2018-12-31T03:15:18.936Z,18.87
2018-12-31T03:17:48.205Z,18.40
2018-12-31T03:20:17.455Z,19.40
2018-12-31T03:22:46.747Z,20.37
2018-12-31T03:25:16.032Z,18.63
2018-12-31T03:27:45.314Z,19.53
2018-12-31T03:30:14.574Z,19.67
2018-12-31T03:32:43.834Z,18.23
2018-12-31T03:35:13.135Z,19.27
2018-12-31T03:37:42.387Z,18.40
2018-12-31T03:40:11.661Z,18.10
2018-12-31T03:42:41.066Z,17.20
2018-12-31T03:45:10.535Z,16.80
2018-12-31T03:47:39.789Z,18.10
2018-12-31T03:50:09.071Z,16.80
2018-12-31T03:52:38.359Z,15.77
2018-12-31T03:55:07.685Z,16.20
2018-12-31T03:57:36.963Z,16.67
2018-12-31T04:00:06.720Z,16.03
2018-12-31T04:02:36.001Z,15.03
2018-12-31T04:05:06.036Z,15.93
2018-12-31T04:07:35.282Z,15.47
2018-12-31T04:10:04.784Z,16.40
2018-12-31T04:12:34.044Z,16.33
2018-12-31T04:15:03.373Z,14.07
2018-12-31T04:17:32.607Z,14.20
2018-12-31T04:20:01.883Z,13.77
2018-12-31T04:22:31.139Z,13.77
2018-12-31T04:25:00.389Z,14.87
2018-12-31T04:27:29.664Z,13.30
2018-12-31T04:29:58.919Z,12.13
2018-12-31T04:32:28.201Z,13.67
2018-12-31T04:34:57.480Z,12.90
2018-12-31T04:37:26.757Z,12.20
2018-12-31T04:39:56.062Z,13.33
2018-12-31T04:42:25.329Z,11.70
2018-12-31T04:44:54.587Z,11.17
2018-12-31T04:47:23.851Z,11.63
2018-12-31T04:49:53.210Z,12.80
2018-12-31T04:52:22.457Z,11.77
2018-12-31T04:54:51.746Z,12.33
2018-12-31T04:57:20.986Z,12.33
2018-12-31T04:59:50.235Z,10.87
2018-12-31T05:02:19.512Z,11.80
2018-12-31T05:04:48.759Z,11.90
2018-12-31T05:07:18.054Z,11.53
2018-12-31T05:09:47.301Z,12.10
2018-12-31T05:12:16.587Z,11.60
2018-12-31T05:14:45.834Z,11.53
2018-12-31T05:17:15.071Z,11.00
2018-12-31T05:19:44.338Z,11.33
2018-12-31T05:22:13.607Z,11.50
2018-12-31T05:24:42.880Z,11.33
2018-12-31T05:27:12.159Z,11.73
2018-12-31T05:29:41.407Z,11.93
2018-12-31T05:32:10.660Z,12.53
2018-12-31T05:34:39.941Z,12.17
2018-12-31T05:37:09.243Z,12.37
2018-12-31T05:39:38.482Z,11.30
2018-12-31T05:42:07.763Z,12.23
2018-12-31T05:44:37.012Z,11.27
2018-12-31T05:47:06.288Z,12.33
2018-12-31T05:49:35.535Z,11.07
2018-12-31T05:52:04.804Z,12.13
2018-12-31T05:54:34.061Z,12.23
2018-12-31T05:57:03.335Z,11.23
2018-12-31T05:59:32.599Z,12.73
2018-12-31T06:02:01.846Z,11.03
2018-12-31T06:04:31.117Z,12.30
2018-12-31T06:07:00.528Z,11.53
2018-12-31T06:09:29.775Z,12.27
2018-12-31T06:11:59.036Z,12.30
2018-12-31T06:14:28.297Z,11.63
2018-12-31T06:16:57.554Z,11.87
2018-12-31T06:19:26.825Z,11.40
2018-12-31T06:21:56.120Z,10.77
2018-12-31T06:24:25.400Z,10.20
2018-12-31T06:26:54.672Z,11.03
2018-12-31T06:29:23.947Z,11.20
2018-12-31T06:31:53.218Z,9.97
2018-12-31T06:34:22.478Z,10.90
2018-12-31T06:36:51.811Z,10.30
2018-12-31T06:39:21.057Z,11.03
2018-12-31T06:41:50.367Z,10.70
2018-12-31T06:44:19.615Z,10.93
2018-12-31T06:46:48.889Z,11.20
2018-12-31T06:49:18.149Z,11.10
2018-12-31T06:51:47.423Z,11.10
2018-12-31T06:54:16.707Z,10.43
2018-12-31T06:56:45.956Z,10.43
2018-12-31T06:59:15.257Z,10.20
2018-12-31T07:01:44.499Z,10.80
2018-12-31T07:04:14.788Z,9.07
2018-12-31T07:06:44.044Z,9.30
2018-12-31T07:09:13.314Z,9.57
2018-12-31T07:11:42.562Z,8.90
2018-12-31T07:14:11.846Z,10.83
2018-12-31T07:16:41.100Z,9.57
2018-12-31T07:19:10.352Z,11.03
2018-12-31T07:21:39.615Z,8.97
2018-12-31T07:24:08.933Z,8.70
2018-12-31T07:26:38.202Z,9.53
2018-12-31T07:29:07.557Z,8.33
2018-12-31T07:31:36.835Z,9.60
2018-12-31T07:34:06.106Z,9.40
2018-12-31T07:36:35.375Z,9.53
2018-12-31T07:39:06.355Z,8.80
2018-12-31T07:41:35.849Z,9.60
2018-12-31T07:44:05.135Z,9.77
2018-12-31T07:46:34.399Z,9.40
2018-12-31T07:49:03.758Z,9.20
2018-12-31T07:51:33.059Z,9.73
2018-12-31T07:54:02.326Z,8.97
2018-12-31T07:56:31.578Z,9.73
2018-12-31T07:59:00.866Z,9.90
2018-12-31T08:01:30.130Z,8.37
2018-12-31T08:03:59.381Z,8.90
2018-12-31T08:06:28.654Z,10.13
2018-12-31T08:08:57.969Z,8.70
2018-12-31T08:11:27.274Z,9.37
2018-12-31T08:13:56.563Z,8.10
2018-12-31T08:16:25.800Z,7.97
2018-12-31T08:18:55.070Z,8.80
2018-12-31T08:21:24.387Z,9.13
2018-12-31T08:23:53.634Z,8.50
2018-12-31T08:26:24.288Z,8.67
2018-12-31T08:28:55.441Z,8.83
2018-12-31T08:31:25.329Z,8.33
2018-12-31T08:33:56.638Z,8.10
2018-12-31T08:36:26.993Z,8.50
2018-12-31T08:38:57.464Z,8.10
2018-12-31T08:41:28.041Z,7.80
2018-12-31T08:43:58.256Z,9.10
2018-12-31T08:46:28.533Z,8.37
2018-12-31T08:48:59.315Z,8.20
2018-12-31T08:51:30.030Z,8.47
2018-12-31T08:54:00.696Z,7.57
2018-12-31T08:56:32.355Z,7.30
2018-12-31T08:59:03.388Z,7.20
2018-12-31T09:01:34.389Z,7.03
2018-12-31T09:04:06.013Z,7.43
2018-12-31T09:06:37.480Z,7.20
2018-12-31T09:09:09.407Z,8.30
2018-12-31T09:11:40.534Z,7.60
2018-12-31T09:14:11.425Z,8.53
2018-12-31T09:17:02.460Z,7.67
2018-12-31T09:19:33.814Z,7.47
2018-12-31T09:22:03.787Z,7.50
2018-12-31T09:24:33.550Z,6.47
2018-12-31T09:27:02.809Z,7.23
2018-12-31T09:29:33.895Z,6.73
2018-12-31T09:32:03.142Z,7.00
2018-12-31T09:34:32.395Z,6.63
2018-12-31T09:37:01.718Z,6.50
2018-12-31T09:39:30.994Z,5.80
2018-12-31T09:42:00.270Z,6.30
2018-12-31T09:44:29.663Z,6.03
2018-12-31T09:46:58.967Z,6.80
2018-12-31T09:49:30.246Z,6.20
2018-12-31T09:52:01.639Z,6.07
2018-12-31T09:54:32.821Z,5.83
2018-12-31T09:57:03.687Z,6.03
2018-12-31T09:59:33.317Z,6.00
2018-12-31T10:02:03.155Z,6.67
2018-12-31T10:04:33.122Z,5.47
2018-12-31T10:07:02.382Z,6.07
2018-12-31T10:09:31.628Z,6.40
2018-12-31T10:12:00.916Z,5.77
2018-12-31T10:14:30.298Z,5.67
2018-12-31T10:16:59.577Z,5.20
2018-12-31T10:19:28.825Z,6.47
2018-12-31T10:21:58.098Z,5.67
2018-12-31T10:24:27.339Z,6.10
2018-12-31T10:26:56.645Z,6.33
2018-12-31T10:29:26.976Z,6.57
2018-12-31T10:31:56.235Z,6.93
2018-12-31T10:34:25.552Z,6.87
2018-12-31T10:36:54.765Z,6.67
2018-12-31T10:39:24.469Z,6.60
2018-12-31T10:41:54.285Z,6.63
2018-12-31T10:44:24.651Z,6.87
2018-12-31T10:46:54.941Z,7.13
2018-12-31T10:49:25.514Z,7.43
2018-12-31T10:51:56.224Z,6.97
2018-12-31T10:54:26.828Z,7.53
2018-12-31T10:56:56.939Z,7.23
2018-12-31T10:59:26.281Z,7.87
2018-12-31T11:01:55.777Z,7.33
2018-12-31T11:04:25.406Z,7.50
2018-12-31T11:06:54.797Z,7.13
2018-12-31T11:09:24.226Z,8.13
2018-12-31T11:11:53.618Z,7.87
2018-12-31T11:14:22.905Z,8.10
2018-12-31T11:16:52.241Z,8.13
2018-12-31T11:19:21.639Z,7.73
2018-12-31T11:21:51.657Z,9.20
2018-12-31T11:24:21.926Z,9.13
2018-12-31T11:26:51.548Z,7.90
2018-12-31T11:29:21.024Z,8.13
2018-12-31T11:31:52.265Z,8.67
2018-12-31T11:34:21.655Z,8.93
2018-12-31T11:36:51.143Z,8.90
2018-12-31T11:39:20.503Z,8.80
2018-12-31T11:41:51.628Z,10.10
2018-12-31T11:44:20.961Z,9.67
2018-12-31T11:46:52.166Z,8.60
2018-12-31T11:49:22.353Z,10.67
2018-12-31T11:51:52.189Z,9.10
2018-12-31T11:54:23.279Z,9.70
2018-12-31T11:56:54.170Z,9.07
2018-12-31T11:59:45.418Z,9.50
2018-12-31T12:02:23.317Z,8.30
2018-12-31T12:04:50.295Z,9.73
2018-12-31T12:07:22.185Z,10.90
2018-12-31T12:09:54.109Z,8.80
2018-12-31T12:12:24.041Z,8.57
2018-12-31T12:14:54.179Z,9.17
2018-12-31T12:17:23.837Z,8.37
2018-12-31T12:19:55.068Z,8.63
2018-12-31T12:22:24.955Z,8.43
2018-12-31T12:25:04.288Z,7.73
2018-12-31T12:27:34.822Z,8.50
2018-12-31T12:30:06.050Z,8.03
2018-12-31T12:32:35.695Z,8.27
2018-12-31T12:35:05.729Z,9.40
2018-12-31T12:37:35.518Z,8.77
2018-12-31T12:40:05.072Z,7.97
2018-12-31T12:42:34.373Z,7.17
2018-12-31T12:45:04.045Z,8.10
2018-12-31T12:47:33.303Z,8.53
2018-12-31T12:50:02.578Z,7.00
2018-12-31T12:52:31.833Z,6.97
2018-12-31T12:55:02.229Z,7.97
2018-12-31T12:57:31.855Z,7.77
2018-12-31T13:00:01.367Z,7.87
2018-12-31T13:02:30.670Z,7.33
2018-12-31T13:05:03.937Z,7.10
2018-12-31T13:07:30.998Z,7.33
2018-12-31T13:10:00.263Z,7.80
2018-12-31T13:12:29.537Z,6.60
2018-12-31T13:14:58.816Z,8.40
2018-12-31T13:17:28.133Z,7.33
2018-12-31T13:19:57.380Z,8.00
2018-12-31T13:22:26.664Z,7.87
2018-12-31T13:24:55.933Z,8.37
2018-12-31T13:27:25.181Z,7.67
2018-12-31T13:29:54.449Z,6.83
2018-12-31T13:32:23.761Z,6.93
2018-12-31T13:34:53.023Z,6.57
2018-12-31T13:37:22.272Z,7.17
2018-12-31T13:39:51.534Z,6.63
2018-12-31T13:42:27.572Z,6.77
2018-12-31T13:45:08.889Z,6.80
2018-12-31T13:47:46.198Z,5.93
2018-12-31T13:50:21.620Z,5.80
2018-12-31T13:52:54.105Z,5.33
2018-12-31T13:55:26.907Z,5.80
2018-12-31T13:58:03.933Z,5.93
2018-12-31T14:00:46.663Z,6.20
2018-12-31T14:03:19.754Z,10.50
2018-12-31T14:05:54.602Z,6.40
2018-12-31T14:08:34.052Z,6.73
2018-12-31T14:11:07.434Z,6.03
2018-12-31T14:13:42.455Z,7.23
2018-12-31T14:16:25.260Z,7.13
2018-12-31T14:19:07.268Z,8.00
2018-12-31T14:21:43.703Z,7.07
2018-12-31T14:24:25.692Z,7.53
2018-12-31T14:27:11.011Z,8.40
2018-12-31T14:29:42.910Z,7.00
2018-12-31T14:32:26.932Z,7.43
2018-12-31T14:35:04.711Z,8.27
2018-12-31T14:37:46.489Z,7.07
2018-12-31T14:40:30.343Z,6.70
2018-12-31T14:43:11.447Z,6.93
2018-12-31T14:45:54.594Z,7.30
2018-12-31T14:48:29.410Z,7.40
2018-12-31T14:51:08.635Z,8.27
2018-12-31T14:53:45.158Z,9.07
2018-12-31T14:56:32.936Z,8.50
2018-12-31T14:59:14.746Z,9.60
2018-12-31T15:01:44.078Z,10.03
2018-12-31T15:04:13.327Z,10.60
2018-12-31T15:06:42.608Z,9.93
2018-12-31T15:09:11.872Z,10.40
2018-12-31T15:11:41.434Z,11.00
2018-12-31T15:14:10.682Z,9.97
2018-12-31T15:16:39.954Z,9.47
2018-12-31T15:19:09.223Z,9.87
2018-12-31T15:21:38.812Z,9.80
2018-12-31T15:24:08.481Z,10.17
2018-12-31T15:26:37.856Z,9.47
2018-12-31T15:29:07.216Z,10.10
2018-12-31T15:31:36.601Z,8.87
2018-12-31T15:34:06.516Z,9.93
2018-12-31T15:36:36.054Z,10.57
2018-12-31T15:39:07.131Z,11.03
2018-12-31T15:41:36.417Z,10.73
2018-12-31T15:44:05.733Z,11.40
2018-12-31T15:46:35.031Z,10.70
2018-12-31T15:49:04.287Z,10.70
2018-12-31T15:51:33.545Z,10.83
2018-12-31T15:54:03.006Z,11.27
2018-12-31T15:56:32.390Z,11.23
2018-12-31T15:59:01.692Z,12.53
2018-12-31T16:01:30.944Z,13.43
2018-12-31T16:04:00.649Z,13.50
2018-12-31T16:06:29.973Z,12.97
2018-12-31T16:08:59.225Z,13.37
2018-12-31T16:11:28.535Z,14.47
2018-12-31T16:13:57.815Z,13.87
2018-12-31T16:16:27.098Z,14.73
2018-12-31T16:18:56.444Z,13.43
2018-12-31T16:21:25.743Z,14.93
2018-12-31T16:23:55.057Z,13.93
2018-12-31T16:26:24.350Z,13.57
2018-12-31T16:28:53.889Z,16.60
2018-12-31T16:31:23.527Z,15.80
2018-12-31T16:33:52.873Z,15.77
2018-12-31T16:36:24.127Z,18.07
2018-12-31T16:38:53.763Z,15.80
2018-12-31T16:41:23.269Z,14.93
2018-12-31T16:43:52.621Z,16.53
2018-12-31T16:46:21.872Z,16.40
2018-12-31T16:48:51.154Z,16.43
2018-12-31T16:51:20.446Z,17.17
2018-12-31T16:53:49.933Z,16.30
2018-12-31T16:56:19.237Z,18.83
2018-12-31T16:58:48.557Z,17.83
2018-12-31T17:01:18.552Z,19.53
2018-12-31T17:03:47.942Z,19.83
2018-12-31T17:06:17.762Z,20.17
2018-12-31T17:08:47.627Z,21.30
2018-12-31T17:11:17.212Z,21.53
2018-12-31T17:13:46.951Z,22.00
2018-12-31T17:16:16.206Z,23.80
2018-12-31T17:18:45.558Z,22.80
2018-12-31T17:21:14.971Z,20.93
2018-12-31T17:23:44.268Z,21.83
2018-12-31T17:26:15.399Z,31.47
2018-12-31T17:28:49.116Z,31.30
2018-12-31T17:31:18.519Z,25.67
2018-12-31T17:33:47.911Z,22.30
2018-12-31T17:36:25.164Z,20.27
2018-12-31T17:38:56.499Z,18.70
2018-12-31T17:41:26.081Z,19.83
2018-12-31T17:43:56.442Z,19.43
2018-12-31T17:46:29.317Z,18.97
2018-12-31T17:48:58.823Z,18.73
2018-12-31T17:51:28.347Z,20.83
2018-12-31T17:53:58.160Z,19.97
2018-12-31T17:56:27.921Z,20.77
2018-12-31T17:58:57.593Z,20.33
2018-12-31T18:01:27.350Z,19.93
2018-12-31T18:03:57.029Z,19.77
2018-12-31T18:06:26.964Z,19.07
2018-12-31T18:08:56.654Z,19.67
2018-12-31T18:11:26.110Z,18.80
2018-12-31T18:13:55.400Z,21.97
2018-12-31T18:16:24.681Z,19.30
2018-12-31T18:18:53.975Z,20.83
2018-12-31T18:21:23.507Z,22.50
2018-12-31T18:23:53.320Z,24.67
2018-12-31T18:26:23.054Z,27.17
2018-12-31T18:28:52.611Z,75.67
2018-12-31T18:31:22.224Z,27.97
2018-12-31T18:33:51.513Z,21.67
2018-12-31T18:36:21.456Z,22.27
2018-12-31T18:38:50.837Z,22.30
2018-12-31T18:41:21.671Z,22.03
2018-12-31T18:43:51.036Z,23.20
2018-12-31T18:46:20.388Z,21.73
2018-12-31T18:48:51.421Z,20.80
2018-12-31T18:51:20.721Z,20.43
2018-12-31T18:53:50.020Z,19.57
2018-12-31T18:56:19.291Z,19.90
2018-12-31T18:58:48.568Z,21.07
2018-12-31T19:01:17.957Z,24.27
2018-12-31T19:03:47.623Z,23.63
2018-12-31T19:06:16.927Z,23.30
2018-12-31T19:08:46.277Z,24.33
2018-12-31T19:11:15.878Z,27.27
2018-12-31T19:13:45.159Z,23.47
2018-12-31T19:16:14.435Z,26.17
2018-12-31T19:18:43.751Z,24.20
2018-12-31T19:21:13.051Z,24.53
2018-12-31T19:23:42.843Z,22.47
2018-12-31T19:26:12.119Z,22.97
2018-12-31T19:28:41.579Z,23.07
2018-12-31T19:31:10.939Z,25.50
2018-12-31T19:33:40.213Z,26.50
2018-12-31T19:36:09.490Z,25.47
2018-12-31T19:38:38.785Z,23.63
2018-12-31T19:41:08.078Z,23.47
2018-12-31T19:43:37.555Z,24.70
2018-12-31T19:46:07.059Z,24.47
2018-12-31T19:48:36.393Z,25.00
2018-12-31T19:51:06.079Z,24.37
2018-12-31T19:53:35.364Z,27.13
2018-12-31T19:56:04.666Z,23.60
2018-12-31T19:58:33.967Z,22.80
2018-12-31T20:01:03.282Z,24.83
2018-12-31T20:03:32.546Z,28.70
2018-12-31T20:06:01.810Z,30.87
2018-12-31T20:08:31.137Z,30.50
2018-12-31T20:11:00.682Z,27.20
2018-12-31T20:13:31.287Z,33.73
2018-12-31T20:16:00.579Z,30.87
2018-12-31T20:18:30.103Z,76.27
2018-12-31T20:20:59.404Z,26.20
2018-12-31T20:23:28.771Z,23.87
2018-12-31T20:25:58.045Z,24.13
2018-12-31T20:28:29.892Z,30.50
2018-12-31T20:30:59.397Z,24.17
2018-12-31T20:33:28.686Z,25.33
2018-12-31T20:35:57.980Z,27.03
2018-12-31T20:38:27.300Z,30.07
2018-12-31T20:40:57.055Z,26.90
2018-12-31T20:43:28.038Z,27.13
2018-12-31T20:46:00.163Z,25.97
2018-12-31T20:48:31.336Z,28.80
2018-12-31T20:51:02.219Z,32.63
2018-12-31T20:53:35.088Z,40.97
2018-12-31T20:56:05.804Z,24.90
2018-12-31T20:58:36.212Z,23.93
2018-12-31T21:01:07.001Z,25.37
2018-12-31T21:03:37.386Z,22.40
2018-12-31T21:06:07.949Z,22.00
2018-12-31T21:08:39.476Z,21.43
2018-12-31T21:11:08.949Z,22.40
2018-12-31T21:13:38.264Z,21.33
2018-12-31T21:16:08.360Z,21.17
2018-12-31T21:18:38.095Z,20.93
2018-12-31T21:21:07.752Z,21.47
2018-12-31T21:23:38.250Z,21.20
2018-12-31T21:26:07.654Z,21.63
2018-12-31T21:28:37.324Z,24.37
2018-12-31T21:31:06.695Z,24.73
2018-12-31T21:33:36.064Z,26.30
2018-12-31T21:36:05.356Z,24.83
2018-12-31T21:38:34.877Z,26.63
2018-12-31T21:41:04.203Z,24.27
2018-12-31T21:43:33.688Z,26.70
2018-12-31T21:46:03.479Z,27.20
2018-12-31T21:48:32.863Z,29.87
2018-12-31T21:51:02.191Z,31.60
2018-12-31T21:53:31.798Z,35.63
2018-12-31T21:56:01.202Z,30.73
2018-12-31T21:58:30.758Z,33.63
2018-12-31T22:01:00.140Z,30.70
2018-12-31T22:03:29.392Z,27.40
2018-12-31T22:05:58.720Z,26.00
2018-12-31T22:08:28.067Z,24.53
2018-12-31T22:10:57.567Z,27.53
2018-12-31T22:13:26.871Z,32.13
2018-12-31T22:15:57.530Z,27.53
2018-12-31T22:18:26.934Z,35.30
2018-12-31T22:20:58.456Z,28.50
2018-12-31T22:23:27.865Z,34.43
2018-12-31T22:25:57.182Z,30.77
2018-12-31T22:28:29.044Z,30.80
2018-12-31T22:31:01.699Z,33.13
2018-12-31T22:33:33.321Z,35.17
2018-12-31T22:36:03.690Z,36.80
2018-12-31T22:38:33.583Z,36.50
2018-12-31T22:41:04.288Z,35.13
2018-12-31T22:43:34.164Z,35.47
2018-12-31T22:46:03.736Z,33.57
2018-12-31T22:48:33.019Z,31.20
2018-12-31T22:51:04.697Z,30.73
2018-12-31T22:53:34.365Z,28.23
2018-12-31T22:56:03.696Z,29.20
2018-12-31T22:58:32.982Z,30.30
2018-12-31T23:01:02.272Z,32.27
2018-12-31T23:03:31.581Z,40.53
2018-12-31T23:06:01.119Z,47.63
2018-12-31T23:08:31.509Z,111.93
2018-12-31T23:11:01.181Z,245.00
2018-12-31T23:13:34.486Z,226.67
2018-12-31T23:16:03.906Z,240.43
2018-12-31T23:18:33.183Z,245.90
2018-12-31T23:21:02.521Z,252.37
2018-12-31T23:23:31.776Z,324.53
2018-12-31T23:26:01.351Z,422.67
2018-12-31T23:28:30.632Z,498.80
2018-12-31T23:31:01.512Z,503.67
2018-12-31T23:33:32.038Z,384.53
2018-12-31T23:36:01.342Z,395.73
2018-12-31T23:38:30.647Z,408.83
2018-12-31T23:40:59.946Z,359.70
2018-12-31T23:43:29.256Z,260.27
2018-12-31T23:45:58.572Z,236.93
2018-12-31T23:48:28.173Z,236.90
2018-12-31T23:50:57.480Z,240.10
2018-12-31T23:53:26.851Z,239.17
2018-12-31T23:55:56.142Z,233.80
2018-12-31T23:58:26.379Z,218.27
